createdAt,value
2022-12-09T00:01:26.546Z,96701.19
2022-12-09T00:03:55.225Z,96692.94
2022-12-09T00:06:25.248Z,96691.72
2022-12-09T00:08:52.309Z,96696.63
2022-12-09T00:11:20.437Z,96699.78
2022-12-09T00:13:55.725Z,96704.66
2022-12-09T00:16:23.679Z,96717.84
2022-12-09T00:18:51.879Z,96714.41
2022-12-09T00:21:21.089Z,96712.91
2022-12-09T00:23:49.002Z,96709.50
2022-12-09T00:26:16.483Z,96707.63
2022-12-09T00:28:43.582Z,96703.97
2022-12-09T00:31:14.138Z,96689.84
2022-12-09T00:33:41.003Z,96689.63
2022-12-09T00:36:11.164Z,96690.50
2022-12-09T00:38:38.652Z,96700.94
2022-12-09T00:41:06.046Z,96692.66
2022-12-09T00:43:33.614Z,96689.78
2022-12-09T00:46:00.770Z,96683.25
2022-12-09T00:48:28.293Z,96694.00
2022-12-09T00:50:55.525Z,96691.09
2022-12-09T00:53:22.423Z,96675.03
2022-12-09T00:55:49.208Z,96678.19
2022-12-09T00:58:16.055Z,96678.41
2022-12-09T01:00:43.015Z,96677.63
2022-12-09T01:03:18.156Z,96690.22
2022-12-09T01:05:45.369Z,96687.25
2022-12-09T01:08:13.500Z,96681.38
2022-12-09T01:10:42.085Z,96681.31
2022-12-09T01:13:09.086Z,96682.13
2022-12-09T01:15:36.689Z,96684.63
2022-12-09T01:18:03.852Z,96692.28
2022-12-09T01:20:30.548Z,96707.41
2022-12-09T01:22:57.219Z,96713.47
2022-12-09T01:25:23.867Z,96704.28
2022-12-09T01:27:50.732Z,96703.03
2022-12-09T01:30:17.770Z,96700.56
2022-12-09T01:32:44.782Z,96694.69
2022-12-09T01:35:11.712Z,96690.56
2022-12-09T01:37:38.435Z,96686.75
2022-12-09T01:40:08.313Z,96686.72
2022-12-09T01:42:35.052Z,96678.66
2022-12-09T01:45:41.653Z,96686.75
2022-12-09T01:48:16.632Z,96703.28
2022-12-09T01:50:54.424Z,96695.00
2022-12-09T01:53:26.192Z,96681.41
2022-12-09T01:55:55.508Z,96678.72
2022-12-09T01:58:22.459Z,96686.78
2022-12-09T02:00:49.398Z,96700.09
2022-12-09T02:03:16.461Z,96696.19
2022-12-09T02:05:44.561Z,96691.53
2022-12-09T02:08:17.316Z,96686.13
2022-12-09T02:11:07.827Z,96686.09
2022-12-09T02:14:11.897Z,96682.47
2022-12-09T02:16:51.378Z,96677.16
2022-12-09T02:19:44.001Z,96678.25
2022-12-09T02:22:16.267Z,96674.34
2022-12-09T02:24:52.386Z,96673.00
2022-12-09T02:27:28.192Z,96669.84
2022-12-09T02:30:23.229Z,96671.28
2022-12-09T02:33:32.033Z,96670.13
2022-12-09T02:36:13.073Z,96667.44
2022-12-09T02:38:42.469Z,96657.72
2022-12-09T02:41:28.567Z,96656.47
2022-12-09T02:44:03.142Z,96658.41
2022-12-09T02:46:32.029Z,96646.47
2022-12-09T02:48:59.586Z,96638.06
2022-12-09T02:51:33.592Z,96644.31
2022-12-09T02:54:07.537Z,96645.13
2022-12-09T02:56:35.576Z,96646.53
2022-12-09T02:59:02.529Z,96641.66
2022-12-09T03:01:37.403Z,96637.53
2022-12-09T03:04:07.651Z,96623.34
2022-12-09T03:06:50.946Z,96632.09
2022-12-09T03:09:32.974Z,96621.25
2022-12-09T03:12:06.400Z,96614.81
2022-12-09T03:14:41.981Z,96609.81
2022-12-09T03:17:16.192Z,96607.31
2022-12-09T03:19:49.736Z,96600.69
2022-12-09T03:22:20.972Z,96604.38
2022-12-09T03:24:58.809Z,96605.03
2022-12-09T03:27:32.493Z,96607.69
2022-12-09T03:30:03.227Z,96592.59
2022-12-09T03:32:32.557Z,96578.88
2022-12-09T03:35:08.752Z,96554.66
2022-12-09T03:37:38.758Z,96558.22
2022-12-09T03:40:13.947Z,96563.47
2022-12-09T03:42:53.283Z,96560.22
2022-12-09T03:45:21.353Z,96553.41
2022-12-09T03:47:48.267Z,96551.53
2022-12-09T03:50:15.267Z,96552.91
2022-12-09T03:52:53.425Z,96551.84
2022-12-09T03:55:29.235Z,96560.03
2022-12-09T03:58:00.200Z,96552.78
2022-12-09T04:00:27.649Z,96549.81
2022-12-09T04:02:54.623Z,96546.25
2022-12-09T04:05:21.624Z,96554.31
2022-12-09T04:07:48.633Z,96534.72
2022-12-09T04:10:15.572Z,96526.16
2022-12-09T04:12:42.268Z,96528.13
2022-12-09T04:15:10.311Z,96519.25
2022-12-09T04:17:37.238Z,96519.25
2022-12-09T04:20:05.836Z,96508.75
2022-12-09T04:22:32.950Z,96498.44
2022-12-09T04:24:59.890Z,96500.63
2022-12-09T04:27:26.871Z,96494.97
2022-12-09T04:29:53.702Z,96494.22
2022-12-09T04:32:20.423Z,96489.63
2022-12-09T04:34:47.265Z,96487.94
2022-12-09T04:37:15.430Z,96491.91
2022-12-09T04:39:42.120Z,96488.41
2022-12-09T04:42:08.853Z,96494.38
2022-12-09T04:44:35.821Z,96486.31
2022-12-09T04:47:02.717Z,96480.22
2022-12-09T04:49:29.607Z,96470.56
2022-12-09T04:51:56.295Z,96460.34
2022-12-09T04:54:23.055Z,96457.16
2022-12-09T04:56:50.337Z,96444.66
2022-12-09T04:59:17.049Z,96445.16
2022-12-09T05:01:44.424Z,96449.09
2022-12-09T05:04:11.467Z,96448.44
2022-12-09T05:06:38.751Z,96448.25
2022-12-09T05:09:05.896Z,96447.72
2022-12-09T05:11:33.039Z,96446.47
2022-12-09T05:13:59.929Z,96449.47
2022-12-09T05:16:27.292Z,96439.19
2022-12-09T05:18:54.191Z,96446.19
2022-12-09T05:21:21.711Z,96445.94
2022-12-09T05:23:49.061Z,96442.53
2022-12-09T05:26:18.754Z,96448.00
2022-12-09T05:28:45.798Z,96441.16
2022-12-09T05:31:19.846Z,96445.00
2022-12-09T05:33:47.788Z,96454.09
2022-12-09T05:36:17.777Z,96440.09
2022-12-09T05:38:45.133Z,96444.25
2022-12-09T05:41:12.197Z,96443.44
2022-12-09T05:43:38.991Z,96437.75
2022-12-09T05:46:07.089Z,96436.31
2022-12-09T05:48:35.261Z,96434.13
2022-12-09T05:51:12.350Z,96431.13
2022-12-09T05:53:39.666Z,96425.06
2022-12-09T05:56:06.712Z,96423.19
2022-12-09T05:58:34.323Z,96422.78
2022-12-09T06:01:08.714Z,96420.38
2022-12-09T06:03:36.702Z,96408.56
2022-12-09T06:06:12.381Z,96404.13
2022-12-09T06:08:39.942Z,96392.78
2022-12-09T06:11:12.813Z,96401.59
2022-12-09T06:13:39.988Z,96396.22
2022-12-09T06:16:07.886Z,96398.59
2022-12-09T06:18:36.142Z,96399.81
2022-12-09T06:21:10.833Z,96403.97
2022-12-09T06:23:41.419Z,96396.84
2022-12-09T06:26:23.066Z,96393.13
2022-12-09T06:28:50.348Z,96393.78
2022-12-09T06:31:17.336Z,96390.25
2022-12-09T06:34:00.476Z,96373.75
2022-12-09T06:36:30.239Z,96376.63
2022-12-09T06:39:01.793Z,96375.72
2022-12-09T06:41:32.753Z,96375.63
2022-12-09T06:44:00.248Z,96379.97
2022-12-09T06:46:28.551Z,96377.06
2022-12-09T06:48:55.893Z,96374.28
2022-12-09T06:51:24.329Z,96369.63
2022-12-09T06:53:51.377Z,96371.38
2022-12-09T06:56:18.446Z,96357.63
2022-12-09T06:58:46.599Z,96359.59
2022-12-09T07:01:19.941Z,96361.78
2022-12-09T07:03:49.387Z,96362.63
2022-12-09T07:06:34.555Z,96357.44
2022-12-09T07:09:04.705Z,96357.84
2022-12-09T07:11:31.963Z,96364.69
2022-12-09T07:13:59.071Z,96365.59
2022-12-09T07:16:26.105Z,96372.31
2022-12-09T07:18:54.526Z,96373.56
2022-12-09T07:21:23.373Z,96379.03
2022-12-09T07:23:50.664Z,96373.72
2022-12-09T07:26:18.496Z,96367.63
2022-12-09T07:28:47.296Z,96369.78
2022-12-09T07:31:20.328Z,96366.91
2022-12-09T07:33:47.767Z,96362.03
2022-12-09T07:36:20.512Z,96367.09
2022-12-09T07:38:48.285Z,96354.97
2022-12-09T07:41:21.060Z,96357.44
2022-12-09T07:43:48.969Z,96353.94
2022-12-09T07:46:18.202Z,96351.50
2022-12-09T07:48:45.799Z,96349.03
2022-12-09T07:51:12.812Z,96348.50
2022-12-09T07:53:39.420Z,96346.34
2022-12-09T07:56:09.294Z,96336.31
2022-12-09T07:58:36.348Z,96339.94
2022-12-09T08:01:08.988Z,96342.09
2022-12-09T08:03:36.197Z,96338.13
2022-12-09T08:06:03.952Z,96344.91
2022-12-09T08:08:31.986Z,96339.28
2022-12-09T08:11:13.762Z,96337.06
2022-12-09T08:13:42.380Z,96337.22
2022-12-09T08:16:11.711Z,96335.28
2022-12-09T08:18:38.723Z,96336.53
2022-12-09T08:21:11.817Z,96325.63
2022-12-09T08:23:39.576Z,96325.31
2022-12-09T08:26:06.894Z,96320.53
2022-12-09T08:28:34.112Z,96322.34
2022-12-09T08:31:11.605Z,96323.59
2022-12-09T08:33:38.973Z,96317.09
2022-12-09T08:36:10.930Z,96310.50
2022-12-09T08:38:37.800Z,96290.09
2022-12-09T08:41:20.251Z,96276.66
2022-12-09T08:43:47.631Z,96271.41
2022-12-09T08:46:15.409Z,96270.50
2022-12-09T08:48:42.965Z,96288.19
2022-12-09T08:51:12.336Z,96289.56
2022-12-09T08:53:39.812Z,96285.75
2022-12-09T08:56:15.044Z,96278.91
2022-12-09T08:58:42.542Z,96271.97
2022-12-09T09:01:21.022Z,96269.31
2022-12-09T09:03:49.056Z,96277.75
2022-12-09T09:06:18.138Z,96272.22
2022-12-09T09:08:45.814Z,96279.63
2022-12-09T09:11:16.097Z,96277.81
2022-12-09T09:13:44.524Z,96275.53
2022-12-09T09:16:14.949Z,96275.69
2022-12-09T09:18:42.857Z,96275.13
2022-12-09T09:21:11.728Z,96274.72
2022-12-09T09:23:38.783Z,96276.28
2022-12-09T09:26:09.533Z,96277.66
2022-12-09T09:28:36.229Z,96266.34
2022-12-09T09:31:05.383Z,96265.28
2022-12-09T09:33:32.634Z,96260.88
2022-12-09T09:36:06.844Z,96262.84
2022-12-09T09:38:35.351Z,96265.00
2022-12-09T09:41:08.259Z,96257.25
2022-12-09T09:43:38.460Z,96255.31
2022-12-09T09:46:06.215Z,96254.22
2022-12-09T09:48:35.934Z,96252.66
2022-12-09T09:51:15.289Z,96244.47
2022-12-09T09:53:42.427Z,96236.81
2022-12-09T09:57:07.828Z,96217.22
2022-12-09T10:00:11.091Z,96218.84
2022-12-09T10:03:04.970Z,96218.00
2022-12-09T10:05:35.987Z,96225.88
2022-12-09T10:08:22.862Z,96221.00
2022-12-09T10:11:14.336Z,96217.59
2022-12-09T10:14:30.679Z,96214.22
2022-12-09T10:17:39.097Z,96197.50
2022-12-09T10:20:13.797Z,96200.91
2022-12-09T10:22:50.575Z,96198.00
2022-12-09T10:25:24.896Z,96198.72
2022-12-09T10:28:25.556Z,96188.66
2022-12-09T10:30:55.464Z,96185.59
2022-12-09T10:33:38.008Z,96193.63
2022-12-09T10:36:07.745Z,96196.66
2022-12-09T10:38:39.051Z,96196.66
2022-12-09T10:41:38.913Z,96200.59
2022-12-09T10:44:23.933Z,96203.78
2022-12-09T10:47:03.231Z,96204.66
2022-12-09T10:49:31.210Z,96191.91
2022-12-09T10:51:58.699Z,96186.84
2022-12-09T10:54:40.042Z,96187.06
2022-12-09T10:57:24.549Z,96194.06
2022-12-09T11:00:21.584Z,96191.56
2022-12-09T11:02:56.055Z,96185.66
2022-12-09T11:05:30.891Z,96194.22
2022-12-09T11:07:59.377Z,96183.44
2022-12-09T11:10:29.615Z,96176.06
2022-12-09T11:13:05.754Z,96182.00
2022-12-09T11:15:42.042Z,96171.41
2022-12-09T11:18:32.258Z,96176.78
2022-12-09T11:21:05.866Z,96168.56
2022-12-09T11:23:33.025Z,96157.63
2022-12-09T11:26:01.783Z,96159.44
2022-12-09T11:28:35.990Z,96163.53
2022-12-09T11:31:28.487Z,96155.06
2022-12-09T11:34:00.360Z,96139.44
2022-12-09T11:36:32.640Z,96137.06
2022-12-09T11:39:40.086Z,96134.44
2022-12-09T11:42:32.743Z,96142.63
2022-12-09T11:45:25.910Z,96132.81
2022-12-09T11:48:25.919Z,96131.88
2022-12-09T11:50:51.610Z,96129.16
2022-12-09T11:53:31.040Z,96136.00
2022-12-09T11:56:11.368Z,96128.47
2022-12-09T11:58:50.385Z,96120.91
2022-12-09T12:01:56.363Z,96121.59
2022-12-09T12:04:34.684Z,96120.72
2022-12-09T12:07:19.158Z,96118.06
2022-12-09T12:09:54.109Z,96106.91
2022-12-09T12:12:38.789Z,96112.28
2022-12-09T12:15:19.953Z,96109.00
2022-12-09T12:17:52.176Z,96107.75
2022-12-09T12:20:19.029Z,96116.00
2022-12-09T12:23:40.094Z,96097.34
2022-12-09T12:26:17.179Z,96091.41
2022-12-09T12:29:33.729Z,96085.34
2022-12-09T12:32:52.282Z,96085.88
2022-12-09T12:35:56.063Z,96077.28
2022-12-09T12:38:30.765Z,96078.16
2022-12-09T12:41:37.147Z,96065.06
2022-12-09T12:44:47.184Z,96062.19
2022-12-09T12:47:36.793Z,96068.09
2022-12-09T12:50:12.696Z,96066.88
2022-12-09T12:52:56.492Z,96066.31
2022-12-09T12:55:41.609Z,96062.66
2022-12-09T12:58:23.215Z,96060.69
2022-12-09T13:01:22.414Z,96055.31
2022-12-09T13:04:13.365Z,96052.75
2022-12-09T13:07:23.551Z,96046.25
2022-12-09T13:10:36.942Z,96041.94
2022-12-09T13:13:05.797Z,96033.44
2022-12-09T13:15:42.616Z,96034.09
2022-12-09T13:18:17.023Z,96022.97
2022-12-09T13:20:54.769Z,96021.53
2022-12-09T13:23:49.185Z,96014.72
2022-12-09T13:26:50.853Z,96012.38
2022-12-09T13:29:30.234Z,96007.53
2022-12-09T13:32:16.705Z,96011.28
2022-12-09T13:34:55.736Z,96003.56
2022-12-09T13:37:37.202Z,95995.13
2022-12-09T13:40:27.671Z,95997.25
2022-12-09T13:43:25.868Z,95994.19
2022-12-09T13:46:01.150Z,95984.34
2022-12-09T13:48:46.955Z,95974.78
2022-12-09T13:51:14.144Z,95967.09
2022-12-09T13:53:46.732Z,95971.94
2022-12-09T13:56:16.365Z,95983.06
2022-12-09T13:59:28.041Z,95983.63
2022-12-09T14:02:35.233Z,95988.13
2022-12-09T14:05:11.388Z,95992.06
2022-12-09T14:07:48.411Z,95985.25
2022-12-09T14:10:38.331Z,95978.41
2022-12-09T14:13:36.621Z,95976.97
2022-12-09T14:16:33.856Z,95994.38
2022-12-09T14:19:38.781Z,95988.47
2022-12-09T14:22:39.051Z,95994.56
2022-12-09T14:25:28.331Z,95997.81
2022-12-09T14:28:24.243Z,95984.16
2022-12-09T14:31:00.745Z,95988.47
2022-12-09T14:33:36.269Z,95992.06
2022-12-09T14:36:30.669Z,95987.75
2022-12-09T14:39:25.132Z,95990.25
2022-12-09T14:42:04.284Z,95990.44
2022-12-09T14:44:40.711Z,95976.41
2022-12-09T14:47:22.657Z,95984.50
2022-12-09T14:49:50.744Z,95980.00
2022-12-09T14:52:35.445Z,95974.03
2022-12-09T14:55:09.293Z,95966.88
2022-12-09T14:57:44.964Z,95960.09
2022-12-09T15:00:31.444Z,95952.38
2022-12-09T15:06:00.981Z,95956.81
2022-12-09T15:08:35.443Z,95963.84
2022-12-09T15:11:12.096Z,95977.31
2022-12-09T15:13:44.161Z,95984.69
2022-12-09T15:16:14.086Z,95982.69
2022-12-09T15:18:43.248Z,95964.00
2022-12-09T15:21:10.632Z,95956.13
2022-12-09T15:23:43.737Z,95979.09
2022-12-09T15:26:32.775Z,95984.34
2022-12-09T15:29:01.312Z,95987.19
2022-12-09T15:31:30.580Z,95980.38
2022-12-09T15:34:11.654Z,95979.31
2022-12-09T15:36:49.467Z,95986.66
2022-12-09T15:39:32.443Z,95985.59
2022-12-09T15:42:07.090Z,95991.53
2022-12-09T15:44:53.362Z,95990.44
2022-12-09T15:47:28.298Z,95999.94
2022-12-09T15:50:18.290Z,96004.78
2022-12-09T15:52:51.166Z,95979.31
2022-12-09T15:55:22.229Z,95970.16
2022-12-09T15:57:52.948Z,95974.06
2022-12-09T16:00:20.120Z,95966.53
2022-12-09T16:02:49.278Z,95977.31
2022-12-09T16:05:22.703Z,95989.88
2022-12-09T16:07:59.752Z,95982.00
2022-12-09T16:10:27.879Z,95973.56
2022-12-09T16:13:05.750Z,95989.00
2022-12-09T16:16:33.783Z,95988.78
2022-12-09T16:19:00.417Z,95997.41
2022-12-09T16:21:31.808Z,95989.50
2022-12-09T16:24:07.162Z,95996.50
2022-12-09T16:26:37.885Z,95994.88
2022-12-09T16:29:08.109Z,95999.56
2022-12-09T16:31:34.896Z,95998.84
2022-12-09T16:34:01.628Z,96008.38
2022-12-09T16:36:31.472Z,96001.00
2022-12-09T16:39:33.598Z,96019.84
2022-12-09T16:42:01.793Z,96022.31
2022-12-09T16:44:35.205Z,96025.59
2022-12-09T16:47:18.213Z,96018.94
2022-12-09T16:49:47.536Z,96028.28
2022-12-09T16:52:24.069Z,96033.50
2022-12-09T16:54:51.680Z,96036.19
2022-12-09T16:57:19.888Z,96032.41
2022-12-09T16:59:46.741Z,96033.09
2022-12-09T17:02:26.582Z,96035.78
2022-12-09T17:04:53.319Z,96042.09
2022-12-09T17:07:19.975Z,96043.72
2022-12-09T17:09:46.569Z,96028.81
2022-12-09T17:12:13.229Z,96025.91
2022-12-09T17:14:40.050Z,96041.91
2022-12-09T17:17:06.855Z,96044.09
2022-12-09T17:19:33.492Z,96043.38
2022-12-09T17:22:00.108Z,96046.06
2022-12-09T17:24:26.749Z,96047.16
2022-12-09T17:26:53.440Z,96037.09
2022-12-09T17:29:20.183Z,96041.44
2022-12-09T17:31:49.750Z,96055.63
2022-12-09T17:34:16.579Z,96067.47
2022-12-09T17:36:43.360Z,96071.38
2022-12-09T17:39:12.644Z,96066.72
2022-12-09T17:41:39.827Z,96064.94
2022-12-09T17:44:06.846Z,96062.44
2022-12-09T17:46:33.470Z,96066.00
2022-12-09T17:49:01.048Z,96066.22
2022-12-09T17:51:33.920Z,96063.69
2022-12-09T17:54:02.468Z,96066.03
2022-12-09T17:56:28.974Z,96064.41
2022-12-09T17:59:02.672Z,96062.09
2022-12-09T18:01:30.738Z,96065.16
2022-12-09T18:04:02.896Z,96070.91
2022-12-09T18:06:34.485Z,96077.56
2022-12-09T18:09:05.591Z,96079.88
2022-12-09T18:11:32.818Z,96091.53
2022-12-09T18:13:59.916Z,96099.94
2022-12-09T18:16:26.730Z,96099.56
2022-12-09T18:18:53.541Z,96107.13
2022-12-09T18:21:20.389Z,96116.28
2022-12-09T18:23:48.270Z,96114.84
2022-12-09T18:26:17.814Z,96111.06
2022-12-09T18:28:44.505Z,96128.84
2022-12-09T18:31:14.120Z,96135.97
2022-12-09T18:33:41.154Z,96143.50
2022-12-09T18:36:14.128Z,96139.00
2022-12-09T18:38:41.102Z,96140.25
2022-12-09T18:41:22.387Z,96139.91
2022-12-09T18:43:51.024Z,96144.97
2022-12-09T18:46:26.738Z,96134.00
2022-12-09T18:49:02.467Z,96139.88
2022-12-09T18:51:29.918Z,96137.34
2022-12-09T18:53:58.576Z,96140.78
2022-12-09T18:56:25.948Z,96140.97
2022-12-09T18:59:09.458Z,96138.81
2022-12-09T19:01:40.645Z,96151.50
2022-12-09T19:04:12.390Z,96144.88
2022-12-09T19:06:40.606Z,96141.66
2022-12-09T19:09:12.947Z,96143.97
2022-12-09T19:11:40.731Z,96140.94
2022-12-09T19:14:08.638Z,96158.84
2022-12-09T19:16:35.919Z,96150.78
2022-12-09T19:19:09.054Z,96162.44
2022-12-09T19:21:36.988Z,96157.22
2022-12-09T19:24:03.680Z,96160.97
2022-12-09T19:26:32.389Z,96161.84
2022-12-09T19:29:02.520Z,96161.84
2022-12-09T19:31:36.277Z,96160.38
2022-12-09T19:34:08.273Z,96170.59
2022-12-09T19:36:35.350Z,96175.25
2022-12-09T19:39:03.517Z,96176.22
2022-12-09T19:41:30.070Z,96175.97
2022-12-09T19:43:58.317Z,96178.81
2022-12-09T19:46:26.637Z,96183.66
2022-12-09T19:48:54.166Z,96186.31
2022-12-09T19:51:21.826Z,96190.31
2022-12-09T19:53:49.142Z,96192.50
2022-12-09T19:56:18.173Z,96191.44
2022-12-09T19:58:46.073Z,96203.44
2022-12-09T20:01:21.840Z,96206.78
2022-12-09T20:03:57.254Z,96207.69
2022-12-09T20:06:24.349Z,96207.56
2022-12-09T20:08:50.914Z,96212.16
2022-12-09T20:11:19.888Z,96213.06
2022-12-09T20:13:47.382Z,96214.19
2022-12-09T20:16:18.616Z,96217.78
2022-12-09T20:18:46.744Z,96219.56
2022-12-09T20:21:14.539Z,96232.63
2022-12-09T20:23:42.957Z,96242.88
2022-12-09T20:26:27.633Z,96249.16
2022-12-09T20:28:56.398Z,96248.97
2022-12-09T20:31:28.409Z,96252.25
2022-12-09T20:33:57.491Z,96253.31
2022-12-09T20:36:27.704Z,96250.34
2022-12-09T20:38:57.062Z,96253.38
2022-12-09T20:41:25.450Z,96260.94
2022-12-09T20:43:54.681Z,96253.03
2022-12-09T20:46:23.889Z,96265.97
2022-12-09T20:48:51.099Z,96271.75
2022-12-09T20:51:32.529Z,96263.72
2022-12-09T20:53:59.719Z,96269.06
2022-12-09T20:56:28.017Z,96272.84
2022-12-09T20:58:55.412Z,96278.63
2022-12-09T21:01:33.506Z,96272.19
2022-12-09T21:04:01.952Z,96275.28
2022-12-09T21:06:31.245Z,96276.53
2022-12-09T21:09:02.859Z,96280.00
2022-12-09T21:11:29.455Z,96279.69
2022-12-09T21:14:01.275Z,96275.94
2022-12-09T21:16:32.867Z,96282.84
2022-12-09T21:19:05.958Z,96294.13
2022-12-09T21:21:35.982Z,96288.16
2022-12-09T21:24:03.674Z,96286.22
2022-12-09T21:26:30.721Z,96291.81
2022-12-09T21:29:01.117Z,96293.59
2022-12-09T21:31:30.163Z,96287.66
2022-12-09T21:33:58.204Z,96293.38
2022-12-09T21:36:27.631Z,96294.69
2022-12-09T21:38:54.883Z,96295.03
2022-12-09T21:41:24.697Z,96298.09
2022-12-09T21:43:52.200Z,96311.44
2022-12-09T21:46:21.687Z,96307.38
2022-12-09T21:48:52.436Z,96307.69
2022-12-09T21:51:20.593Z,96311.16
2022-12-09T21:53:48.848Z,96311.63
2022-12-09T21:56:21.297Z,96309.94
2022-12-09T21:58:49.879Z,96310.13
2022-12-09T22:01:20.273Z,96305.28
2022-12-09T22:03:48.220Z,96313.75
2022-12-09T22:06:16.003Z,96310.44
2022-12-09T22:08:43.320Z,96311.78
2022-12-09T22:11:11.893Z,96305.06
2022-12-09T22:13:39.796Z,96310.38
2022-12-09T22:16:12.270Z,96301.78
2022-12-09T22:18:39.357Z,96302.38
2022-12-09T22:21:25.122Z,96309.28
2022-12-09T22:23:58.047Z,96308.22
2022-12-09T22:26:24.723Z,96309.34
2022-12-09T22:28:51.562Z,96306.66
2022-12-09T22:31:21.439Z,96316.19
2022-12-09T22:33:49.458Z,96312.63
2022-12-09T22:36:16.623Z,96323.78
2022-12-09T22:38:43.356Z,96317.63
2022-12-09T22:41:16.082Z,96317.94
2022-12-09T22:43:43.349Z,96324.47
2022-12-09T22:46:16.870Z,96328.59
2022-12-09T22:48:43.761Z,96332.59
2022-12-09T22:51:13.063Z,96322.72
2022-12-09T22:53:40.619Z,96328.44
2022-12-09T22:56:08.352Z,96329.16
2022-12-09T22:58:35.508Z,96332.78
2022-12-09T23:01:02.459Z,96333.25
2022-12-09T23:03:29.118Z,96341.66
2022-12-09T23:05:55.735Z,96331.94
2022-12-09T23:08:22.680Z,96341.31
2022-12-09T23:10:49.347Z,96323.31
2022-12-09T23:13:15.898Z,96327.88
2022-12-09T23:15:42.506Z,96329.56
2022-12-09T23:18:09.097Z,96327.38
2022-12-09T23:20:35.701Z,96323.72
2022-12-09T23:23:02.359Z,96323.72
2022-12-09T23:25:28.948Z,96328.59
2022-12-09T23:27:55.500Z,96335.47
2022-12-09T23:30:22.039Z,96337.16
2022-12-09T23:32:48.593Z,96330.22
2022-12-09T23:35:15.252Z,96336.53
2022-12-09T23:37:41.887Z,96338.88
2022-12-09T23:40:09.771Z,96336.41
2022-12-09T23:42:36.415Z,96332.66
2022-12-09T23:45:03.146Z,96335.94
2022-12-09T23:47:29.836Z,96325.03
2022-12-09T23:49:56.503Z,96327.28
2022-12-09T23:52:23.085Z,96329.50
2022-12-09T23:54:49.673Z,96332.78
2022-12-09T23:57:16.410Z,96338.22
2022-12-09T23:59:42.988Z,96343.28
